Time;durP1;ratioP1;P1;durP2;ratioP2;P2;SDS_P1;SDS_P2;PMS_P1;PMS_P2;Temp;Humidity;BMP_temperature;BMP_pressure;BME280_temperature;BME280_humidity;BME280_pressure;Samples;Min_cycle;Max_cycle;Signal;HPM_P1;HPM_P2
2022/06/25 00:02:05;;;;;;;28.00;6.63;;;17.60;42.10;;;;;;4982068;28;20485;-65
2022/06/25 00:07:16;;;;;;;27.97;5.87;;;17.60;42.00;;;;;;4980500;28;20551;-63
2022/06/25 00:09:44;;;;;;;27.83;5.60;;;17.50;42.10;;;;;;4980099;28;20496;-64
2022/06/25 00:14:56;;;;;;;28.10;6.30;;;17.50;42.40;;;;;;4978498;28;20460;-63
2022/06/25 00:17:23;;;;;;;29.03;6.50;;;17.50;42.30;;;;;;4979329;28;20457;-63
2022/06/25 00:19:50;;;;;;;27.57;5.17;;;17.50;42.50;;;;;;4982209;28;20483;-63
2022/06/25 00:22:16;;;;;;;27.53;6.03;;;17.50;42.30;;;;;;4979670;28;20465;-63
2022/06/25 00:24:43;;;;;;;27.23;5.63;;;17.50;42.40;;;;;;4982030;28;20486;-65
2022/06/25 00:27:10;;;;;;;30.20;6.33;;;17.50;42.40;;;;;;4979338;28;20851;-65
2022/06/25 00:29:37;;;;;;;30.97;5.57;;;17.50;42.40;;;;;;4978514;28;20484;-64
2022/06/25 00:32:09;;;;;;;30.07;6.00;;;17.50;42.50;;;;;;4980948;28;20483;-65
2022/06/25 00:34:35;;;;;;;26.23;5.60;;;17.50;42.50;;;;;;4983307;28;21216;-63
2022/06/25 00:37:02;;;;;;;26.97;5.63;;;17.50;42.50;;;;;;4980041;28;20465;-65
2022/06/25 00:39:29;;;;;;;25.80;5.00;;;17.50;42.60;;;;;;4979297;28;20494;-64
2022/06/25 00:41:56;;;;;;;28.40;6.20;;;17.50;42.70;;;;;;4979206;28;20512;-64
2022/06/25 00:44:23;;;;;;;26.10;5.10;;;17.50;42.60;;;;;;4985071;28;20865;-64
2022/06/25 00:46:49;;;;;;;27.13;5.77;;;17.40;42.70;;;;;;4977452;28;20470;-64
2022/06/25 00:49:17;;;;;;;27.27;5.40;;;17.40;43.10;;;;;;4981334;28;20492;-63
2022/06/25 00:51:47;;;;;;;26.90;5.40;;;17.40;42.70;;;;;;4980324;28;20461;-63
2022/06/25 00:54:17;;;;;;;27.37;5.27;;;17.40;42.70;;;;;;4980466;28;20472;-63
2022/06/25 00:56:49;;;;;;;26.20;5.13;;;17.40;42.70;;;;;;4980081;28;20472;-63
2022/06/25 00:59:20;;;;;;;27.57;5.40;;;17.40;42.70;;;;;;4979028;28;20485;-64
2022/06/25 01:01:47;;;;;;;27.63;5.47;;;17.40;42.70;;;;;;4979897;28;20535;-63
2022/06/25 01:04:14;;;;;;;28.40;5.50;;;17.40;42.70;;;;;;4979031;28;20485;-65
2022/06/25 01:06:43;;;;;;;26.60;6.23;;;17.40;42.50;;;;;;4977007;28;20601;-63
2022/06/25 01:09:09;;;;;;;29.90;5.03;;;17.30;42.70;;;;;;4978471;28;20497;-64
2022/06/25 01:11:36;;;;;;;26.90;6.00;;;17.30;42.70;;;;;;4983325;28;20471;-64
2022/06/25 01:14:07;;;;;;;29.10;5.17;;;17.30;42.50;;;;;;4980276;28;20453;-63
2022/06/25 01:16:34;;;;;;;27.07;5.30;;;17.30;42.80;;;;;;4978353;28;20471;-63
2022/06/25 01:19:06;;;;;;;30.63;6.07;;;17.20;42.70;;;;;;4977913;28;21005;-63
2022/06/25 01:21:33;;;;;;;29.47;5.50;;;17.20;42.80;;;;;;4980098;28;20461;-64
2022/06/25 01:24:02;;;;;;;30.53;6.00;;;17.10;42.70;;;;;;4979839;28;20512;-64
2022/06/25 01:26:29;;;;;;;26.97;5.30;;;17.10;42.80;;;;;;4978694;28;20465;-63
2022/06/25 01:28:56;;;;;;;29.73;6.30;;;17.10;42.80;;;;;;4979779;28;20480;-63
2022/06/25 01:31:22;;;;;;;28.63;5.50;;;17.00;42.80;;;;;;4981290;28;21025;-63
2022/06/25 01:33:49;;;;;;;27.90;5.40;;;16.90;43.00;;;;;;4981587;28;20468;-65
2022/06/25 01:36:16;;;;;;;28.27;5.53;;;16.90;43.20;;;;;;4979394;28;20469;-63
2022/06/25 01:38:43;;;;;;;31.20;5.70;;;16.90;43.30;;;;;;4981969;28;20999;-64
2022/06/25 01:41:11;;;;;;;29.53;4.90;;;16.80;43.30;;;;;;4977258;28;20472;-63
2022/06/25 01:43:39;;;;;;;27.80;6.23;;;16.80;43.30;;;;;;4979424;28;20480;-63
2022/06/25 01:46:08;;;;;;;26.30;5.03;;;16.70;43.50;;;;;;4978527;28;20565;-65
2022/06/25 01:48:35;;;;;;;28.43;5.60;;;16.70;43.50;;;;;;4977789;28;20487;-63
2022/06/25 01:51:02;;;;;;;29.77;6.47;;;16.70;43.60;;;;;;4978279;28;20472;-63
2022/06/25 01:53:29;;;;;;;29.90;5.80;;;16.70;43.80;;;;;;4983212;28;20468;-64
2022/06/25 01:55:56;;;;;;;28.70;6.13;;;16.70;43.80;;;;;;4979882;28;20495;-64
2022/06/25 01:58:24;;;;;;;30.03;6.70;;;16.60;43.90;;;;;;4977912;28;20480;-63
2022/06/25 02:00:51;;;;;;;29.23;6.93;;;16.60;43.70;;;;;;4972826;28;22516;-65
2022/06/25 02:03:18;;;;;;;29.27;6.63;;;16.60;43.90;;;;;;4979514;28;20501;-63
2022/06/25 02:06:00;;;;;;;29.90;6.90;;;16.50;44.00;;;;;;4982353;28;21071;-64
2022/06/25 02:08:30;;;;;;;31.80;6.40;;;16.50;44.10;;;;;;4979868;28;20485;-64
2022/06/25 02:10:58;;;;;;;30.70;7.20;;;16.50;44.30;;;;;;4979999;28;20461;-61
2022/06/25 02:13:26;;;;;;;30.40;6.97;;;16.40;44.40;;;;;;4982528;28;20468;-64
2022/06/25 02:15:54;;;;;;;35.43;8.73;;;16.40;44.50;;;;;;4978760;28;20465;-64
2022/06/25 02:18:22;;;;;;;34.30;9.63;;;16.50;44.70;;;;;;4981683;28;20492;-64
2022/06/25 02:20:49;;;;;;;32.77;9.30;;;16.50;44.90;;;;;;4978419;28;20477;-64
2022/06/25 02:23:17;;;;;;;30.73;9.60;;;16.50;44.80;;;;;;4981582;28;20495;-63
2022/06/25 02:25:44;;;;;;;31.60;10.17;;;16.50;45.00;;;;;;4982351;28;20461;-63
2022/06/25 02:28:12;;;;;;;31.10;10.10;;;16.50;45.10;;;;;;4976095;28;20493;-64
2022/06/25 02:30:40;;;;;;;31.63;10.27;;;16.60;44.90;;;;;;4977174;28;21004;-64
2022/06/25 02:33:11;;;;;;;32.80;10.87;;;16.60;45.00;;;;;;4983237;28;20485;-65
2022/06/25 02:35:39;;;;;;;39.90;10.97;;;16.60;44.60;;;;;;4985793;28;20464;-64
2022/06/25 02:38:06;;;;;;;33.30;10.43;;;16.60;44.70;;;;;;4982041;28;20492;-64
2022/06/25 02:40:32;;;;;;;33.40;11.17;;;16.60;44.40;;;;;;4979688;28;20473;-64
2022/06/25 02:43:00;;;;;;;34.33;11.70;;;16.50;44.50;;;;;;4982274;28;20472;-64
2022/06/25 02:45:28;;;;;;;33.47;10.90;;;16.50;44.40;;;;;;4982750;28;20500;-63
2022/06/25 02:47:57;;;;;;;34.23;11.80;;;16.50;44.30;;;;;;4982855;28;21127;-62
2022/06/25 02:50:24;;;;;;;35.07;11.13;;;16.50;44.40;;;;;;4981191;28;20461;-63
2022/06/25 02:52:51;;;;;;;34.73;11.30;;;16.40;44.30;;;;;;4980708;28;20476;-63
2022/06/25 02:55:18;;;;;;;32.50;10.73;;;16.40;44.40;;;;;;4981279;28;21014;-64
2022/06/25 03:00:29;;;;;;;36.23;11.97;;;16.40;44.40;;;;;;4980482;28;20455;-63
2022/06/25 03:02:57;;;;;;;33.63;12.40;;;16.40;44.30;;;;;;4980393;28;20950;-64
2022/06/25 03:05:24;;;;;;;32.97;11.97;;;16.30;44.30;;;;;;4983866;28;20488;-63
2022/06/25 03:07:51;;;;;;;31.83;10.37;;;16.30;44.40;;;;;;4983527;28;20485;-65
2022/06/25 03:10:17;;;;;;;35.87;10.93;;;16.20;44.40;;;;;;4980277;28;21435;-64
2022/06/25 03:12:44;;;;;;;33.90;11.77;;;16.30;44.50;;;;;;4984748;28;20468;-64
2022/06/25 03:15:11;;;;;;;34.00;11.40;;;16.20;44.60;;;;;;4978431;28;20540;-64
2022/06/25 03:17:38;;;;;;;34.90;11.90;;;16.20;44.60;;;;;;4982438;28;20962;-64
2022/06/25 03:20:07;;;;;;;35.33;12.57;;;16.20;44.70;;;;;;4979086;28;20490;-63
2022/06/25 03:22:34;;;;;;;34.80;11.47;;;16.20;44.60;;;;;;4982701;28;20464;-65
2022/06/25 03:25:00;;;;;;;37.30;11.97;;;16.20;44.70;;;;;;4981874;28;20484;-65
2022/06/25 03:27:27;;;;;;;36.27;11.87;;;16.20;44.70;;;;;;4984974;28;20472;-63
2022/06/25 03:29:54;;;;;;;34.03;10.87;;;16.20;44.70;;;;;;4985223;28;20484;-63
2022/06/25 03:32:21;;;;;;;34.30;11.50;;;16.10;44.70;;;;;;4979755;28;20496;-64
2022/06/25 03:34:48;;;;;;;34.57;11.00;;;16.10;44.80;;;;;;4982077;28;20461;-62
2022/06/25 03:37:16;;;;;;;35.07;12.10;;;16.10;44.80;;;;;;4979005;28;20464;-63
2022/06/25 03:39:43;;;;;;;34.30;11.70;;;16.10;44.90;;;;;;4982817;28;20591;-65
2022/06/25 03:42:09;;;;;;;32.10;10.50;;;16.10;45.00;;;;;;4982143;28;20484;-63
2022/06/25 03:44:36;;;;;;;36.30;11.27;;;16.10;45.20;;;;;;4980740;28;20491;-64
2022/06/25 03:47:04;;;;;;;33.13;11.20;;;16.10;45.30;;;;;;4978738;28;21109;-64
2022/06/25 03:49:30;;;;;;;34.53;10.13;;;16.10;45.20;;;;;;4981500;28;20497;-65
2022/06/25 03:51:57;;;;;;;34.03;10.30;;;16.10;45.40;;;;;;4980048;28;20467;-63
2022/06/25 03:54:25;;;;;;;35.67;9.80;;;16.10;45.30;;;;;;4980736;28;20462;-64
2022/06/25 03:56:52;;;;;;;34.30;10.43;;;16.10;45.40;;;;;;4984277;28;20468;-64
2022/06/25 03:59:19;;;;;;;33.47;11.10;;;16.10;45.40;;;;;;5012754;23;20504;-62
2022/06/25 04:01:45;;;;;;;36.50;10.60;;;16.10;45.40;;;;;;5004040;28;20476;-64
2022/06/25 04:04:12;;;;;;;32.67;10.50;;;16.20;45.80;;;;;;5008901;28;20485;-63
2022/06/25 04:06:39;;;;;;;32.07;9.10;;;16.20;45.60;;;;;;5005621;28;20479;-63
2022/06/25 04:09:06;;;;;;;31.83;9.87;;;16.10;45.50;;;;;;5010374;28;20487;-63
2022/06/25 04:11:34;;;;;;;33.30;11.13;;;16.20;45.40;;;;;;4990758;28;20508;-63
2022/06/25 04:14:01;;;;;;;31.90;10.20;;;16.20;45.40;;;;;;4988866;28;21009;-62
2022/06/25 04:16:27;;;;;;;33.30;9.70;;;16.30;45.30;;;;;;4989281;28;20472;-63
2022/06/25 04:18:54;;;;;;;34.63;10.77;;;16.30;45.30;;;;;;4989663;28;20483;-63
2022/06/25 04:21:21;;;;;;;33.03;9.73;;;16.30;45.10;;;;;;4990525;28;20469;-63
2022/06/25 04:23:48;;;;;;;35.27;10.00;;;16.40;45.10;;;;;;4993061;28;20540;-61
2022/06/25 04:26:15;;;;;;;35.50;10.63;;;16.40;45.80;;;;;;4988402;28;20473;-63
2022/06/25 04:31:28;;;;;;;30.40;8.60;;;16.50;45.00;;;;;;4990730;28;20509;-63
2022/06/25 04:33:55;;;;;;;32.30;9.00;;;16.70;46.00;;;;;;4993605;28;20473;-64
2022/06/25 04:36:21;;;;;;;30.40;8.20;;;17.20;47.00;;;;;;4991602;28;20480;-63
2022/06/25 04:38:49;;;;;;;30.43;8.00;;;18.30;44.40;;;;;;4991421;28;20480;-62
2022/06/25 04:41:16;;;;;;;30.67;7.37;;;19.40;39.40;;;;;;4990700;28;20671;-63
2022/06/25 04:43:45;;;;;;;32.20;6.73;;;20.30;36.20;;;;;;4994529;28;20947;-63
2022/06/25 04:46:12;;;;;;;34.73;7.67;;;21.20;32.30;;;;;;4992812;28;20461;-63
2022/06/25 04:48:39;;;;;;;31.40;7.47;;;22.00;29.90;;;;;;4990737;28;20484;-63
2022/06/25 04:51:06;;;;;;;35.27;7.67;;;22.80;27.20;;;;;;4989360;28;20846;-64
2022/06/25 04:53:33;;;;;;;30.30;5.80;;;23.50;25.20;;;;;;4993192;28;21027;-63
2022/06/25 04:55:59;;;;;;;31.67;7.27;;;24.20;22.30;;;;;;4988622;28;20467;-63
2022/06/25 04:58:26;;;;;;;30.80;6.27;;;24.60;20.30;;;;;;4990819;28;20461;-63
2022/06/25 05:00:54;;;;;;;30.60;7.70;;;24.80;19.70;;;;;;4992889;28;20515;-63
2022/06/25 05:03:21;;;;;;;30.20;6.83;;;25.20;18.70;;;;;;4989749;28;20838;-63
2022/06/25 05:05:48;;;;;;;30.00;6.30;;;25.70;17.60;;;;;;4997059;28;20820;-63
2022/06/25 05:08:14;;;;;;;31.40;7.30;;;26.30;16.70;;;;;;4990881;28;20469;-63
2022/06/25 05:10:41;;;;;;;31.73;7.43;;;26.20;15.50;;;;;;4996105;28;20457;-63
2022/06/25 05:13:14;;;;;;;30.30;7.17;;;25.50;16.50;;;;;;4992792;28;20469;-63
2022/06/25 05:15:42;;;;;;;31.53;8.30;;;24.90;17.90;;;;;;4993171;28;20484;-63
2022/06/25 05:18:12;;;;;;;30.07;8.07;;;24.40;18.50;;;;;;4992463;28;20469;-63
2022/06/25 05:20:39;;;;;;;31.20;7.40;;;23.80;19.40;;;;;;4993704;28;20464;-63
2022/06/25 05:23:06;;;;;;;30.67;7.53;;;24.20;19.90;;;;;;4996177;28;20461;-62
2022/06/25 05:25:33;;;;;;;30.33;7.23;;;24.90;18.40;;;;;;4988957;28;20490;-64
2022/06/25 05:27:59;;;;;;;31.67;7.60;;;25.90;17.20;;;;;;4988908;28;20468;-63
2022/06/25 05:30:26;;;;;;;30.43;7.10;;;27.30;15.40;;;;;;4990600;28;21020;-63
2022/06/25 05:32:53;;;;;;;30.60;6.70;;;28.50;13.10;;;;;;4981277;28;20467;-65
2022/06/25 05:35:21;;;;;;;30.07;7.27;;;29.70;10.90;;;;;;4976147;28;20473;-65
2022/06/25 05:37:48;;;;;;;29.77;7.40;;;29.40;9.80;;;;;;4978317;28;21052;-65
2022/06/25 05:40:15;;;;;;;30.80;7.57;;;29.00;10.30;;;;;;4987393;28;20490;-66
2022/06/25 05:42:42;;;;;;;28.30;6.70;;;28.50;10.60;;;;;;4982775;28;20492;-65
2022/06/25 05:45:10;;;;;;;29.97;6.73;;;29.00;10.70;;;;;;4980058;28;20484;-66
2022/06/25 05:47:37;;;;;;;29.17;6.70;;;29.90;9.00;;;;;;4982670;28;20474;-66
2022/06/25 05:50:04;;;;;;;27.60;6.73;;;30.40;8.40;;;;;;4993484;28;20488;-66
2022/06/25 05:52:33;;;;;;;30.40;6.60;;;31.30;7.10;;;;;;4987893;28;20822;-66
2022/06/25 05:55:00;;;;;;;30.40;6.87;;;32.30;5.70;;;;;;4987318;28;20472;-67
2022/06/25 05:57:27;;;;;;;28.13;6.70;;;33.40;4.00;;;;;;4986658;28;20477;-66
2022/06/25 05:59:53;;;;;;;27.83;7.43;;;33.90;2.10;;;;;;4977951;28;21025;-66
2022/06/25 06:02:20;;;;;;;28.27;7.97;;;32.60;2.90;;;;;;4979737;28;20477;-67
2022/06/25 06:04:47;;;;;;;33.33;6.53;;;31.00;4.90;;;;;;4983578;28;20512;-66
2022/06/25 06:07:14;;;;;;;31.50;7.80;;;29.60;6.70;;;;;;4986238;28;20864;-66
2022/06/25 06:09:42;;;;;;;31.93;7.60;;;28.50;8.40;;;;;;4986983;28;20484;-67
2022/06/25 06:12:09;;;;;;;29.90;7.53;;;27.50;10.10;;;;;;4985976;28;20468;-67
2022/06/25 06:14:36;;;;;;;31.83;7.90;;;26.80;11.00;;;;;;4980340;28;20463;-65
2022/06/25 06:17:02;;;;;;;29.57;7.27;;;26.50;12.30;;;;;;4980631;28;20508;-67
2022/06/25 06:19:29;;;;;;;29.60;6.93;;;26.40;12.40;;;;;;4984789;28;22566;-67
2022/06/25 06:21:56;;;;;;;29.47;7.40;;;26.30;12.80;;;;;;4990557;28;20460;-67
2022/06/25 06:24:23;;;;;;;28.70;7.40;;;26.20;13.30;;;;;;4977198;28;20460;-66
2022/06/25 06:26:51;;;;;;;31.10;8.60;;;26.00;13.80;;;;;;4986250;28;20465;-66
2022/06/25 06:29:18;;;;;;;29.20;7.30;;;25.70;14.00;;;;;;4989373;28;20479;-66
2022/06/25 06:31:45;;;;;;;35.67;7.63;;;25.30;14.80;;;;;;4991280;28;20476;-66
2022/06/25 06:34:12;;;;;;;31.00;7.20;;;25.80;15.60;;;;;;4985345;28;20472;-66
2022/06/25 06:36:39;;;;;;;33.37;6.80;;;28.30;12.60;;;;;;4980995;28;20477;-66
2022/06/25 06:39:05;;;;;;;28.73;6.57;;;30.70;8.60;;;;;;4984616;28;20862;-67
2022/06/25 06:41:32;;;;;;;29.27;6.70;;;30.50;7.00;;;;;;4991366;28;20469;-66
2022/06/25 06:44:00;;;;;;;29.63;7.00;;;29.60;7.60;;;;;;4988112;28;20472;-66
2022/06/25 06:46:27;;;;;;;29.17;6.93;;;29.30;8.70;;;;;;4983265;28;20490;-66
2022/06/25 06:48:54;;;;;;;30.00;7.00;;;29.20;9.20;;;;;;4984714;28;21574;-67
2022/06/25 06:51:20;;;;;;;29.70;7.63;;;29.40;9.00;;;;;;4985224;28;20475;-67
2022/06/25 06:53:47;;;;;;;28.90;6.60;;;29.70;8.50;;;;;;4997900;28;20473;-66
2022/06/25 06:56:14;;;;;;;29.90;7.23;;;30.40;8.50;;;;;;4983411;28;20841;-66
2022/06/25 06:58:41;;;;;;;28.47;5.93;;;32.20;5.70;;;;;;4986125;28;20513;-67
2022/06/25 07:01:09;;;;;;;27.57;6.40;;;34.60;2.60;;;;;;4985339;28;20495;-66
2022/06/25 07:03:36;;;;;;;27.87;6.50;;;36.60;1.00;;;;;;4985266;28;20473;-67
2022/06/25 07:06:02;;;;;;;27.10;5.77;;;38.00;1.00;;;;;;4981256;28;20477;-66
2022/06/25 07:08:29;;;;;;;28.20;5.97;;;38.50;1.00;;;;;;4984346;28;20485;-64
2022/06/25 07:10:56;;;;;;;25.30;5.60;;;39.20;1.00;;;;;;4994014;28;20479;-65
2022/06/25 07:13:23;;;;;;;25.23;5.60;;;39.90;1.00;;;;;;4989625;28;20472;-66
2022/06/25 07:15:49;;;;;;;27.83;6.33;;;41.40;1.00;;;;;;4982760;28;20472;-65
2022/06/25 07:18:17;;;;;;;25.00;5.03;;;42.60;1.00;;;;;;4987003;28;20460;-65
2022/06/25 07:20:44;;;;;;;24.40;4.70;;;43.70;1.00;;;;;;4991661;28;20461;-65
2022/06/25 07:23:11;;;;;;;23.30;4.20;;;45.10;1.00;;;;;;4997618;28;20463;-65
2022/06/25 07:25:38;;;;;;;24.50;4.40;;;45.80;1.00;;;;;;4992547;28;20492;-65
2022/06/25 07:28:05;;;;;;;22.77;3.90;;;46.40;1.00;;;;;;4981845;28;21189;-66
2022/06/25 07:30:31;;;;;;;22.87;3.73;;;47.00;1.00;;;;;;4980682;28;20475;-66
2022/06/25 07:32:58;;;;;;;22.20;3.77;;;47.60;1.00;;;;;;4988838;28;20556;-66
2022/06/25 07:35:26;;;;;;;22.50;3.97;;;48.00;1.00;;;;;;4983919;28;20460;-66
2022/06/25 07:37:53;;;;;;;22.00;3.80;;;48.20;1.00;;;;;;4988880;28;20461;-65
2022/06/25 07:40:22;;;;;;;21.13;3.20;;;48.70;1.00;;;;;;4989331;28;20495;-65
2022/06/25 07:42:48;;;;;;;22.40;4.40;;;49.30;1.00;;;;;;4982559;28;20515;-64
2022/06/25 07:45:15;;;;;;;23.30;4.20;;;49.70;1.00;;;;;;4983829;28;20488;-65
2022/06/25 07:47:42;;;;;;;21.07;4.00;;;50.10;1.00;;;;;;4985737;28;21013;-65
2022/06/25 07:52:56;;;;;;;21.77;3.90;;;51.10;1.00;;;;;;4987997;28;20484;-66
2022/06/25 07:55:22;;;;;;;20.80;3.47;;;51.50;1.00;;;;;;4983085;28;20495;-65
2022/06/25 07:57:49;;;;;;;21.30;4.23;;;51.30;1.00;;;;;;4983712;28;20462;-65
2022/06/25 08:00:17;;;;;;;22.23;4.00;;;51.40;1.00;;;;;;4982968;28;20500;-65
2022/06/25 08:02:43;;;;;;;23.53;3.33;;;51.80;1.00;;;;;;4983169;28;20462;-65
2022/06/25 08:05:11;;;;;;;20.43;3.60;;;52.30;1.00;;;;;;4988485;28;20480;-66
2022/06/25 08:07:37;;;;;;;20.60;3.20;;;52.70;1.00;;;;;;4980717;28;20495;-65
2022/06/25 08:10:07;;;;;;;20.60;3.50;;;53.00;1.00;;;;;;4981312;28;20567;-67
2022/06/25 08:12:34;;;;;;;19.30;3.10;;;53.30;1.00;;;;;;4989441;28;20463;-65
2022/06/25 08:15:01;;;;;;;20.80;2.93;;;53.30;1.00;;;;;;4990327;28;20976;-66
2022/06/25 08:17:28;;;;;;;23.50;3.50;;;53.60;1.00;;;;;;4995828;28;20460;-64
2022/06/25 08:19:54;;;;;;;19.90;2.80;;;53.80;1.00;;;;;;4991500;28;20888;-64
2022/06/25 08:22:21;;;;;;;19.00;2.10;;;54.30;1.00;;;;;;4985198;28;20472;-64
2022/06/25 08:24:48;;;;;;;20.20;2.20;;;54.80;1.00;;;;;;4997784;28;20475;-63
2022/06/25 08:27:16;;;;;;;21.00;2.47;;;55.50;1.00;;;;;;4997196;28;20460;-63
2022/06/25 08:29:43;;;;;;;18.63;2.40;;;56.20;1.00;;;;;;4995722;28;20505;-64
2022/06/25 08:32:09;;;;;;;18.33;1.93;;;56.20;1.00;;;;;;4991939;28;20484;-63
2022/06/25 08:34:36;;;;;;;18.50;2.00;;;56.30;1.00;;;;;;4994562;28;20457;-64
2022/06/25 08:37:04;;;;;;;18.37;1.53;;;57.20;1.00;;;;;;5000673;28;20949;-64
2022/06/25 08:39:31;;;;;;;18.57;1.93;;;57.70;1.00;;;;;;4993029;28;20494;-63
2022/06/25 08:42:01;;;;;;;18.37;1.87;;;57.90;1.00;;;;;;4990834;28;20461;-64
2022/06/25 08:44:30;;;;;;;18.67;2.20;;;58.20;1.00;;;;;;4988308;28;20507;-64
2022/06/25 08:46:58;;;;;;;18.27;1.60;;;58.50;1.00;;;;;;4999729;28;20480;-64
2022/06/25 08:49:26;;;;;;;17.47;1.83;;;58.40;1.00;;;;;;5008758;28;20228;-64
2022/06/25 08:51:54;;;;;;;17.93;1.80;;;58.20;1.00;;;;;;4997527;28;20644;-63
2022/06/25 08:54:21;;;;;;;17.60;1.80;;;58.20;1.00;;;;;;5003201;28;20529;-64
2022/06/25 08:56:48;;;;;;;20.23;2.50;;;57.20;1.00;;;;;;4996263;28;20194;-63
2022/06/25 08:59:16;;;;;;;18.70;1.90;;;55.40;1.00;;;;;;4995565;28;20492;-63
2022/06/25 09:01:44;;;;;;;18.97;1.90;;;55.20;1.00;;;;;;4994713;28;20468;-64
2022/06/25 09:04:11;;;;;;;18.30;2.03;;;56.10;1.00;;;;;;4993845;28;20849;-63
2022/06/25 09:06:38;;;;;;;17.97;2.17;;;56.70;1.00;;;;;;5000693;28;20485;-64
2022/06/25 09:09:10;;;;;;;18.80;1.93;;;56.60;1.00;;;;;;4997869;28;20473;-64
2022/06/25 09:11:52;;;;;;;19.37;3.13;;;56.00;1.00;;;;;;4996683;28;21090;-63
2022/06/25 09:14:24;;;;;;;19.00;2.17;;;55.90;1.00;;;;;;4984226;28;20487;-64
2022/06/25 09:16:58;;;;;;;18.97;1.80;;;55.30;1.00;;;;;;4988678;28;20544;-63
2022/06/25 09:19:33;;;;;;;18.70;1.90;;;55.00;1.00;;;;;;4995116;28;20522;-62
2022/06/25 09:22:01;;;;;;;19.07;2.30;;;53.60;1.00;;;;;;4993788;28;20460;-62
2022/06/25 09:24:42;;;;;;;20.40;1.93;;;50.60;1.00;;;;;;4989178;28;20504;-63
2022/06/25 09:27:09;;;;;;;20.50;2.03;;;47.60;1.00;;;;;;4988577;28;20481;-64
2022/06/25 09:29:40;;;;;;;21.40;3.37;;;45.40;1.00;;;;;;4989768;28;20491;-63
2022/06/25 09:32:09;;;;;;;21.73;2.07;;;43.70;1.00;;;;;;4989779;28;20508;-63
2022/06/25 09:34:37;;;;;;;22.13;2.70;;;42.10;1.00;;;;;;4988089;28;20465;-63
2022/06/25 09:37:21;;;;;;;22.13;2.83;;;40.70;1.00;;;;;;4989475;28;20460;-63
2022/06/25 09:39:50;;;;;;;23.70;2.80;;;39.30;1.00;;;;;;4996855;28;20839;-63
2022/06/25 09:42:21;;;;;;;22.10;2.70;;;38.00;1.00;;;;;;4991565;28;20464;-63
2022/06/25 09:44:48;;;;;;;23.27;3.17;;;36.50;1.00;;;;;;4989594;28;20466;-63
2022/06/25 09:47:17;;;;;;;23.40;2.60;;;35.40;1.00;;;;;;4990618;28;20481;-63
2022/06/25 09:49:43;;;;;;;23.90;3.53;;;34.60;1.00;;;;;;4990954;28;20499;-62
2022/06/25 09:52:11;;;;;;;22.87;3.00;;;33.90;1.00;;;;;;4991648;28;20456;-62
2022/06/25 09:54:38;;;;;;;23.07;3.27;;;33.40;1.00;;;;;;4986941;28;20486;-62
2022/06/25 09:57:05;;;;;;;22.93;3.30;;;33.00;1.00;;;;;;4984998;28;20449;-62
2022/06/25 09:59:34;;;;;;;22.87;4.30;;;32.70;1.00;;;;;;5016977;23;21817;-61
2022/06/25 10:02:03;;;;;;;22.70;2.60;;;32.40;1.00;;;;;;4999048;28;20482;-60
2022/06/25 10:04:32;;;;;;;23.03;3.23;;;32.30;1.00;;;;;;4997621;28;20483;-61
2022/06/25 10:07:02;;;;;;;23.50;2.70;;;32.30;1.20;;;;;;4999833;28;20931;-60
2022/06/25 10:09:31;;;;;;;23.50;3.37;;;32.30;1.00;;;;;;4993088;28;20847;-61
2022/06/25 10:11:59;;;;;;;25.30;3.00;;;32.10;1.00;;;;;;4976282;28;20472;-60
2022/06/25 10:14:27;;;;;;;22.80;3.20;;;31.60;1.00;;;;;;4976524;28;20469;-60
2022/06/25 10:16:55;;;;;;;22.50;3.43;;;31.50;2.10;;;;;;4981909;28;20457;-60
2022/06/25 10:19:25;;;;;;;23.40;2.80;;;31.40;1.60;;;;;;4981142;28;20460;-60
2022/06/25 10:21:54;;;;;;;25.20;3.67;;;31.10;1.50;;;;;;4979042;28;20465;-61
2022/06/25 10:24:21;;;;;;;23.10;2.70;;;30.70;1.00;;;;;;4977898;28;20462;-63
2022/06/25 10:26:48;;;;;;;22.67;2.70;;;30.40;1.70;;;;;;4973571;28;20486;-59
2022/06/25 10:29:25;;;;;;;23.20;3.40;;;30.20;2.40;;;;;;4972782;28;20978;-62
2022/06/25 10:32:11;;;;;;;22.47;2.73;;;29.90;2.50;;;;;;4976303;28;20486;-61
2022/06/25 10:34:38;;;;;;;23.10;2.30;;;29.80;3.00;;;;;;4982709;28;20461;-61
2022/06/25 10:37:06;;;;;;;23.83;3.47;;;29.80;3.20;;;;;;4979387;28;20464;-62
2022/06/25 10:39:36;;;;;;;22.67;2.80;;;29.50;3.20;;;;;;4974752;28;20489;-61
2022/06/25 10:45:50;;;;;;;22.37;2.50;;;29.10;4.40;;;;;;4976973;28;20600;-61
2022/06/25 10:48:19;;;;;;;24.30;4.37;;;29.00;5.00;;;;;;4972005;28;20505;-61
2022/06/25 10:50:54;;;;;;;23.27;4.20;;;28.90;4.50;;;;;;4979244;28;22907;-61
2022/06/25 10:53:24;;;;;;;24.30;3.17;;;28.80;4.80;;;;;;4979907;28;20472;-59
2022/06/25 10:56:22;;;;;;;23.37;3.00;;;28.70;4.90;;;;;;4978072;28;20976;-62
2022/06/25 10:58:50;;;;;;;23.97;3.17;;;28.50;4.80;;;;;;4985234;28;20464;-60
2022/06/25 11:01:29;;;;;;;24.50;3.30;;;28.30;5.10;;;;;;4984147;28;20571;-62
2022/06/25 11:03:58;;;;;;;25.10;2.97;;;27.90;4.60;;;;;;4980616;28;20469;-60
2022/06/25 11:06:29;;;;;;;23.07;2.57;;;27.70;5.50;;;;;;4986068;28;20542;-62
2022/06/25 11:09:08;;;;;;;23.30;3.10;;;27.40;6.30;;;;;;4989862;28;20465;-60
2022/06/25 11:11:35;;;;;;;23.10;2.97;;;27.20;6.90;;;;;;4985907;28;20496;-60
2022/06/25 11:14:12;;;;;;;23.90;2.90;;;27.00;6.80;;;;;;4986661;28;20488;-61
2022/06/25 11:16:38;;;;;;;23.47;3.23;;;26.90;6.70;;;;;;4979584;28;20479;-60
2022/06/25 11:19:05;;;;;;;23.50;2.87;;;26.90;6.90;;;;;;4979130;28;20460;-60
2022/06/25 11:21:35;;;;;;;22.40;2.70;;;26.90;6.80;;;;;;4983844;28;20488;-61
2022/06/25 11:24:12;;;;;;;21.40;2.60;;;26.90;7.40;;;;;;4976901;28;21242;-60
2022/06/25 11:29:26;;;;;;;23.60;3.17;;;27.10;8.00;;;;;;4981233;28;20981;-60
2022/06/25 11:31:54;;;;;;;24.83;3.17;;;27.10;6.80;;;;;;4980052;28;20481;-61
2022/06/25 11:34:24;;;;;;;23.50;3.10;;;26.90;6.60;;;;;;4982989;28;20468;-63
2022/06/25 11:36:58;;;;;;;23.90;3.30;;;26.90;6.70;;;;;;4977571;28;20552;-63
2022/06/25 11:39:26;;;;;;;24.17;3.70;;;26.90;6.60;;;;;;4982090;28;20995;-63
2022/06/25 11:41:55;;;;;;;23.60;2.93;;;27.10;7.40;;;;;;4980010;28;20461;-63
2022/06/25 11:44:22;;;;;;;24.03;3.13;;;27.30;8.50;;;;;;4979565;28;20462;-63
2022/06/25 11:46:51;;;;;;;23.17;3.20;;;27.40;8.20;;;;;;4986327;28;20496;-61
2022/06/25 11:49:20;;;;;;;23.83;2.97;;;27.60;7.70;;;;;;4982636;28;20479;-62
2022/06/25 11:51:48;;;;;;;27.90;3.27;;;27.60;7.70;;;;;;4981559;28;20466;-61
2022/06/25 11:54:15;;;;;;;22.70;2.70;;;27.60;7.00;;;;;;4979533;28;20902;-62
2022/06/25 11:56:51;;;;;;;23.40;3.00;;;27.70;8.50;;;;;;4974823;28;20457;-61
2022/06/25 11:59:25;;;;;;;23.60;2.70;;;27.80;9.40;;;;;;4975993;28;20468;-63
2022/06/25 12:01:52;;;;;;;23.87;2.60;;;27.90;8.30;;;;;;4979032;28;21021;-62
2022/06/25 12:04:19;;;;;;;23.60;2.73;;;27.90;7.90;;;;;;4981666;28;20469;-61
2022/06/25 12:06:46;;;;;;;23.83;2.73;;;27.70;7.40;;;;;;4975845;28;20472;-61
2022/06/25 12:09:15;;;;;;;24.70;3.27;;;27.70;7.70;;;;;;4978746;28;20458;-62
2022/06/25 12:11:51;;;;;;;24.77;2.70;;;27.60;7.60;;;;;;4986715;28;20467;-61
2022/06/25 12:14:20;;;;;;;24.87;3.53;;;27.30;7.40;;;;;;4989891;28;20472;-62
2022/06/25 12:16:48;;;;;;;24.87;3.50;;;27.10;7.80;;;;;;4981370;28;20465;-62
2022/06/25 12:19:15;;;;;;;24.50;3.23;;;27.10;7.50;;;;;;4980026;28;21049;-60
2022/06/25 12:21:41;;;;;;;25.20;3.03;;;27.00;7.70;;;;;;4977425;28;20465;-61
2022/06/25 12:24:12;;;;;;;24.47;3.77;;;26.90;7.40;;;;;;4982211;28;20954;-60
2022/06/25 12:26:41;;;;;;;24.47;2.90;;;26.70;7.00;;;;;;4980487;28;20476;-61
2022/06/25 12:29:10;;;;;;;24.70;2.60;;;26.70;6.90;;;;;;4979417;28;20934;-61
2022/06/25 12:31:38;;;;;;;24.07;2.60;;;26.70;7.10;;;;;;4982610;28;20477;-61
2022/06/25 12:34:06;;;;;;;24.40;2.80;;;26.80;8.70;;;;;;4978348;28;20469;-61
2022/06/25 12:36:36;;;;;;;23.73;2.90;;;26.80;8.70;;;;;;4978901;28;20661;-62
2022/06/25 12:39:24;;;;;;;23.40;2.70;;;26.80;9.50;;;;;;4975052;28;20472;-64
2022/06/25 12:41:51;;;;;;;24.03;2.93;;;26.90;9.40;;;;;;4981743;28;20468;-63
2022/06/25 12:44:19;;;;;;;26.00;3.30;;;27.00;8.80;;;;;;4980081;28;20472;-60
2022/06/25 12:47:00;;;;;;;24.00;2.77;;;27.00;8.70;;;;;;4977502;28;20580;-61
2022/06/25 12:49:39;;;;;;;24.57;2.60;;;26.90;7.70;;;;;;4973265;28;20475;-63
2022/06/25 12:52:05;;;;;;;25.17;3.00;;;26.80;7.80;;;;;;4972701;28;20471;-60
2022/06/25 12:54:40;;;;;;;23.90;2.30;;;26.70;6.50;;;;;;4980859;28;20481;-62
2022/06/25 12:57:08;;;;;;;24.77;2.30;;;26.60;7.40;;;;;;4980813;28;20465;-62
2022/06/25 12:59:35;;;;;;;24.70;2.03;;;26.60;8.50;;;;;;4979853;28;20534;-61
2022/06/25 13:02:03;;;;;;;24.10;2.50;;;26.60;8.10;;;;;;4977191;28;21003;-61
2022/06/25 13:04:30;;;;;;;23.43;2.10;;;26.70;8.40;;;;;;4973788;28;20453;-61
2022/06/25 13:06:57;;;;;;;26.90;2.60;;;26.80;9.50;;;;;;4976420;28;20586;-63